sensor_id;sensor_type;location;lat;lon;timestamp;temperature;humidity
60848;DHT22;46681;47.696;9.140;2023-07-08T00:01:17;22.90;45.70
60848;DHT22;46681;47.696;9.140;2023-07-08T00:03:55;22.90;45.80
60848;DHT22;46681;47.696;9.140;2023-07-08T00:06:26;22.90;46.00
60848;DHT22;46681;47.696;9.140;2023-07-08T00:08:52;22.80;45.80
60848;DHT22;46681;47.696;9.140;2023-07-08T00:11:18;22.80;45.80
60848;DHT22;46681;47.696;9.140;2023-07-08T00:13:47;22.80;46.10
60848;DHT22;46681;47.696;9.140;2023-07-08T00:16:15;22.80;46.00
60848;DHT22;46681;47.696;9.140;2023-07-08T00:18:46;22.80;45.90
60848;DHT22;46681;47.696;9.140;2023-07-08T00:21:14;22.70;46.10
60848;DHT22;46681;47.696;9.140;2023-07-08T00:23:44;22.70;46.10
60848;DHT22;46681;47.696;9.140;2023-07-08T00:26:27;22.70;46.10
60848;DHT22;46681;47.696;9.140;2023-07-08T00:28:54;22.60;46.20
60848;DHT22;46681;47.696;9.140;2023-07-08T00:31:19;22.60;46.20
60848;DHT22;46681;47.696;9.140;2023-07-08T00:33:45;22.60;46.30
60848;DHT22;46681;47.696;9.140;2023-07-08T00:36:13;22.60;46.30
60848;DHT22;46681;47.696;9.140;2023-07-08T00:38:39;22.60;46.50
60848;DHT22;46681;47.696;9.140;2023-07-08T00:41:21;22.60;46.30
60848;DHT22;46681;47.696;9.140;2023-07-08T00:43:53;22.60;46.40
60848;DHT22;46681;47.696;9.140;2023-07-08T00:51:35;22.50;46.40
60848;DHT22;46681;47.696;9.140;2023-07-08T00:54:01;22.50;46.50
60848;DHT22;46681;47.696;9.140;2023-07-08T00:56:32;22.50;46.60
60848;DHT22;46681;47.696;9.140;2023-07-08T00:59:08;22.40;46.60
60848;DHT22;46681;47.696;9.140;2023-07-08T01:01:37;22.40;46.70
60848;DHT22;46681;47.696;9.140;2023-07-08T01:04:23;22.40;46.70
60848;DHT22;46681;47.696;9.140;2023-07-08T01:06:53;22.40;47.00
60848;DHT22;46681;47.696;9.140;2023-07-08T01:09:21;22.40;46.70
60848;DHT22;46681;47.696;9.140;2023-07-08T01:11:48;22.40;46.90
60848;DHT22;46681;47.696;9.140;2023-07-08T01:14:17;22.40;46.90
60848;DHT22;46681;47.696;9.140;2023-07-08T01:16:47;22.40;46.90
60848;DHT22;46681;47.696;9.140;2023-07-08T01:19:19;22.40;46.90
60848;DHT22;46681;47.696;9.140;2023-07-08T01:24:19;22.40;46.90
60848;DHT22;46681;47.696;9.140;2023-07-08T01:26:46;22.40;46.90
60848;DHT22;46681;47.696;9.140;2023-07-08T01:29:16;22.40;46.90
60848;DHT22;46681;47.696;9.140;2023-07-08T01:31:41;22.40;46.90
60848;DHT22;46681;47.696;9.140;2023-07-08T01:34:10;22.40;47.10
60848;DHT22;46681;47.696;9.140;2023-07-08T01:36:39;22.30;47.20
60848;DHT22;46681;47.696;9.140;2023-07-08T01:39:08;22.40;47.40
60848;DHT22;46681;47.696;9.140;2023-07-08T01:41:35;22.30;47.40
60848;DHT22;46681;47.696;9.140;2023-07-08T01:44:00;22.30;47.50
60848;DHT22;46681;47.696;9.140;2023-07-08T01:46:27;22.30;47.70
60848;DHT22;46681;47.696;9.140;2023-07-08T01:48:57;22.30;47.90
60848;DHT22;46681;47.696;9.140;2023-07-08T01:51:25;22.30;47.80
60848;DHT22;46681;47.696;9.140;2023-07-08T01:53:52;22.30;48.20
60848;DHT22;46681;47.696;9.140;2023-07-08T01:56:17;22.30;48.10
60848;DHT22;46681;47.696;9.140;2023-07-08T01:58:45;22.30;48.20
60848;DHT22;46681;47.696;9.140;2023-07-08T02:01:11;22.20;47.90
60848;DHT22;46681;47.696;9.140;2023-07-08T02:03:36;22.20;48.20
60848;DHT22;46681;47.696;9.140;2023-07-08T02:06:04;22.20;48.60
60848;DHT22;46681;47.696;9.140;2023-07-08T02:10:57;22.20;48.50
60848;DHT22;46681;47.696;9.140;2023-07-08T02:13:27;22.20;48.70
60848;DHT22;46681;47.696;9.140;2023-07-08T02:15:52;22.10;49.10
60848;DHT22;46681;47.696;9.140;2023-07-08T02:18:18;22.10;48.90
60848;DHT22;46681;47.696;9.140;2023-07-08T02:20:43;22.10;48.90
60848;DHT22;46681;47.696;9.140;2023-07-08T02:23:09;22.10;48.80
60848;DHT22;46681;47.696;9.140;2023-07-08T02:25:36;22.10;49.00
60848;DHT22;46681;47.696;9.140;2023-07-08T02:28:04;22.10;48.90
60848;DHT22;46681;47.696;9.140;2023-07-08T02:30:29;22.10;49.00
60848;DHT22;46681;47.696;9.140;2023-07-08T02:32:55;22.10;49.10
60848;DHT22;46681;47.696;9.140;2023-07-08T02:35:20;22.10;49.10
60848;DHT22;46681;47.696;9.140;2023-07-08T02:37:52;22.10;49.10
60848;DHT22;46681;47.696;9.140;2023-07-08T02:40:18;22.10;49.10
60848;DHT22;46681;47.696;9.140;2023-07-08T02:42:43;22.00;49.20
60848;DHT22;46681;47.696;9.140;2023-07-08T02:45:12;22.00;49.30
60848;DHT22;46681;47.696;9.140;2023-07-08T02:47:38;22.00;49.40
60848;DHT22;46681;47.696;9.140;2023-07-08T02:50:05;22.00;49.50
60848;DHT22;46681;47.696;9.140;2023-07-08T02:52:33;22.00;49.60
60848;DHT22;46681;47.696;9.140;2023-07-08T02:54:58;22.00;49.60
60848;DHT22;46681;47.696;9.140;2023-07-08T02:57:24;22.00;49.70
60848;DHT22;46681;47.696;9.140;2023-07-08T02:59:52;21.90;49.80
60848;DHT22;46681;47.696;9.140;2023-07-08T03:02:18;21.90;49.80
60848;DHT22;46681;47.696;9.140;2023-07-08T03:04:43;21.90;49.90
60848;DHT22;46681;47.696;9.140;2023-07-08T03:07:10;21.90;50.30
60848;DHT22;46681;47.696;9.140;2023-07-08T03:09:35;21.90;50.00
60848;DHT22;46681;47.696;9.140;2023-07-08T03:12:01;21.90;50.00
60848;DHT22;46681;47.696;9.140;2023-07-08T03:14:27;21.90;50.20
60848;DHT22;46681;47.696;9.140;2023-07-08T03:16:53;21.90;50.10
60848;DHT22;46681;47.696;9.140;2023-07-08T03:19:18;21.90;50.20
60848;DHT22;46681;47.696;9.140;2023-07-08T03:21:44;21.90;50.50
60848;DHT22;46681;47.696;9.140;2023-07-08T03:24:10;21.90;50.60
60848;DHT22;46681;47.696;9.140;2023-07-08T03:26:36;21.80;50.70
60848;DHT22;46681;47.696;9.140;2023-07-08T03:29:05;21.80;50.80
60848;DHT22;46681;47.696;9.140;2023-07-08T03:31:33;21.80;50.80
60848;DHT22;46681;47.696;9.140;2023-07-08T03:33:58;21.80;50.90
60848;DHT22;46681;47.696;9.140;2023-07-08T03:36:24;21.80;50.90
60848;DHT22;46681;47.696;9.140;2023-07-08T03:38:57;21.80;51.00
60848;DHT22;46681;47.696;9.140;2023-07-08T03:41:23;21.80;50.90
60848;DHT22;46681;47.696;9.140;2023-07-08T03:43:49;21.80;50.90
60848;DHT22;46681;47.696;9.140;2023-07-08T03:46:16;21.80;50.90
60848;DHT22;46681;47.696;9.140;2023-07-08T03:48:42;21.80;50.90
60848;DHT22;46681;47.696;9.140;2023-07-08T03:51:37;21.80;51.00
60848;DHT22;46681;47.696;9.140;2023-07-08T03:54:06;21.70;51.00
60848;DHT22;46681;47.696;9.140;2023-07-08T03:56:33;21.70;50.90
60848;DHT22;46681;47.696;9.140;2023-07-08T03:58:59;21.80;51.10
60848;DHT22;46681;47.696;9.140;2023-07-08T04:01:28;21.70;51.10
60848;DHT22;46681;47.696;9.140;2023-07-08T04:03:55;21.70;51.00
60848;DHT22;46681;47.696;9.140;2023-07-08T04:06:21;21.70;51.00
60848;DHT22;46681;47.696;9.140;2023-07-08T04:08:49;21.70;51.20
60848;DHT22;46681;47.696;9.140;2023-07-08T04:11:20;21.70;51.30
60848;DHT22;46681;47.696;9.140;2023-07-08T04:13:48;21.70;51.40
60848;DHT22;46681;47.696;9.140;2023-07-08T04:16:19;21.70;51.30
60848;DHT22;46681;47.696;9.140;2023-07-08T04:18:49;21.70;51.40
60848;DHT22;46681;47.696;9.140;2023-07-08T04:21:15;21.70;51.50
60848;DHT22;46681;47.696;9.140;2023-07-08T04:23:41;21.60;51.40
60848;DHT22;46681;47.696;9.140;2023-07-08T04:26:08;21.70;51.70
60848;DHT22;46681;47.696;9.140;2023-07-08T04:28:36;21.60;51.70
60848;DHT22;46681;47.696;9.140;2023-07-08T04:31:06;21.60;51.80
60848;DHT22;46681;47.696;9.140;2023-07-08T04:33:32;21.60;51.70
60848;DHT22;46681;47.696;9.140;2023-07-08T04:35:58;21.60;51.70
60848;DHT22;46681;47.696;9.140;2023-07-08T04:38:27;21.60;51.70
60848;DHT22;46681;47.696;9.140;2023-07-08T04:40:53;21.60;51.70
60848;DHT22;46681;47.696;9.140;2023-07-08T04:43:20;21.60;51.70
60848;DHT22;46681;47.696;9.140;2023-07-08T04:45:52;21.60;51.80
60848;DHT22;46681;47.696;9.140;2023-07-08T04:48:20;21.60;51.70
60848;DHT22;46681;47.696;9.140;2023-07-08T04:50:49;21.60;51.80
60848;DHT22;46681;47.696;9.140;2023-07-08T04:53:15;21.60;52.10
60848;DHT22;46681;47.696;9.140;2023-07-08T04:55:50;21.60;51.90
60848;DHT22;46681;47.696;9.140;2023-07-08T04:58:17;21.60;51.90
60848;DHT22;46681;47.696;9.140;2023-07-08T05:00:42;21.60;51.70
60848;DHT22;46681;47.696;9.140;2023-07-08T05:03:09;21.60;51.60
60848;DHT22;46681;47.696;9.140;2023-07-08T05:05:35;21.60;51.80
60848;DHT22;46681;47.696;9.140;2023-07-08T05:08:22;21.60;51.70
60848;DHT22;46681;47.696;9.140;2023-07-08T05:10:51;21.60;51.80
60848;DHT22;46681;47.696;9.140;2023-07-08T05:13:18;21.60;51.70
60848;DHT22;46681;47.696;9.140;2023-07-08T05:15:43;21.60;51.70
60848;DHT22;46681;47.696;9.140;2023-07-08T05:18:09;21.60;51.70
60848;DHT22;46681;47.696;9.140;2023-07-08T05:20:39;21.60;51.70
60848;DHT22;46681;47.696;9.140;2023-07-08T05:23:05;21.60;51.70
60848;DHT22;46681;47.696;9.140;2023-07-08T05:25:32;21.60;51.80
60848;DHT22;46681;47.696;9.140;2023-07-08T05:28:01;21.60;51.70
60848;DHT22;46681;47.696;9.140;2023-07-08T05:30:32;21.60;51.70
60848;DHT22;46681;47.696;9.140;2023-07-08T05:32:59;21.60;51.80
60848;DHT22;46681;47.696;9.140;2023-07-08T05:35:29;21.70;51.60
60848;DHT22;46681;47.696;9.140;2023-07-08T05:37:54;21.60;51.70
60848;DHT22;46681;47.696;9.140;2023-07-08T05:40:22;21.70;51.70
60848;DHT22;46681;47.696;9.140;2023-07-08T05:42:52;21.70;51.80
60848;DHT22;46681;47.696;9.140;2023-07-08T05:45:19;21.70;51.60
60848;DHT22;46681;47.696;9.140;2023-07-08T05:47:44;21.70;51.60
60848;DHT22;46681;47.696;9.140;2023-07-08T05:50:11;21.70;51.70
60848;DHT22;46681;47.696;9.140;2023-07-08T05:52:39;21.70;51.70
60848;DHT22;46681;47.696;9.140;2023-07-08T05:55:05;21.70;51.60
60848;DHT22;46681;47.696;9.140;2023-07-08T05:57:30;21.70;51.60
60848;DHT22;46681;47.696;9.140;2023-07-08T06:00:04;21.80;51.50
60848;DHT22;46681;47.696;9.140;2023-07-08T06:02:29;21.70;51.70
60848;DHT22;46681;47.696;9.140;2023-07-08T06:05:00;21.70;51.60
60848;DHT22;46681;47.696;9.140;2023-07-08T06:07:30;21.70;51.50
60848;DHT22;46681;47.696;9.140;2023-07-08T06:09:57;21.80;51.50
60848;DHT22;46681;47.696;9.140;2023-07-08T06:12:24;21.80;51.60
60848;DHT22;46681;47.696;9.140;2023-07-08T06:14:50;21.80;51.60
60848;DHT22;46681;47.696;9.140;2023-07-08T06:17:16;21.80;51.50
60848;DHT22;46681;47.696;9.140;2023-07-08T06:19:55;21.80;51.50
60848;DHT22;46681;47.696;9.140;2023-07-08T06:22:23;21.80;52.00
60848;DHT22;46681;47.696;9.140;2023-07-08T06:24:50;21.80;52.10
60848;DHT22;46681;47.696;9.140;2023-07-08T06:27:16;21.80;52.00
60848;DHT22;46681;47.696;9.140;2023-07-08T06:29:45;21.80;51.90
60848;DHT22;46681;47.696;9.140;2023-07-08T06:32:10;21.80;52.20
60848;DHT22;46681;47.696;9.140;2023-07-08T06:34:42;21.80;51.90
60848;DHT22;46681;47.696;9.140;2023-07-08T06:37:11;21.80;52.20
60848;DHT22;46681;47.696;9.140;2023-07-08T06:39:38;21.80;51.90
60848;DHT22;46681;47.696;9.140;2023-07-08T06:42:06;21.80;52.20
60848;DHT22;46681;47.696;9.140;2023-07-08T06:44:35;21.80;52.10
60848;DHT22;46681;47.696;9.140;2023-07-08T06:47:03;21.90;52.20
60848;DHT22;46681;47.696;9.140;2023-07-08T06:49:30;21.90;52.00
60848;DHT22;46681;47.696;9.140;2023-07-08T06:51:57;21.90;52.00
60848;DHT22;46681;47.696;9.140;2023-07-08T06:54:29;21.90;52.90
60848;DHT22;46681;47.696;9.140;2023-07-08T06:57:00;22.00;54.00
60848;DHT22;46681;47.696;9.140;2023-07-08T06:59:29;22.10;54.30
60848;DHT22;46681;47.696;9.140;2023-07-08T07:01:59;22.20;54.50
60848;DHT22;46681;47.696;9.140;2023-07-08T07:04:25;22.20;54.20
60848;DHT22;46681;47.696;9.140;2023-07-08T07:06:51;22.30;54.40
60848;DHT22;46681;47.696;9.140;2023-07-08T07:09:19;22.30;53.80
60848;DHT22;46681;47.696;9.140;2023-07-08T07:11:50;22.30;53.50
60848;DHT22;46681;47.696;9.140;2023-07-08T07:14:19;22.30;53.30
60848;DHT22;46681;47.696;9.140;2023-07-08T07:16:44;22.30;53.00
60848;DHT22;46681;47.696;9.140;2023-07-08T07:19:10;22.30;52.90
60848;DHT22;46681;47.696;9.140;2023-07-08T07:21:35;22.40;52.90
60848;DHT22;46681;47.696;9.140;2023-07-08T07:26:46;22.40;53.00
60848;DHT22;46681;47.696;9.140;2023-07-08T07:29:22;22.50;52.60
60848;DHT22;46681;47.696;9.140;2023-07-08T07:31:48;22.50;52.40
60848;DHT22;46681;47.696;9.140;2023-07-08T07:34:17;22.50;52.40
60848;DHT22;46681;47.696;9.140;2023-07-08T07:36:53;22.50;52.60
60848;DHT22;46681;47.696;9.140;2023-07-08T07:39:19;22.40;54.20
60848;DHT22;46681;47.696;9.140;2023-07-08T07:41:45;22.50;53.30
60848;DHT22;46681;47.696;9.140;2023-07-08T07:44:30;22.60;53.50
60848;DHT22;46681;47.696;9.140;2023-07-08T07:47:06;22.60;53.00
60848;DHT22;46681;47.696;9.140;2023-07-08T07:49:43;22.70;53.00
60848;DHT22;46681;47.696;9.140;2023-07-08T07:52:29;22.80;52.80
60848;DHT22;46681;47.696;9.140;2023-07-08T07:55:02;22.90;52.50
60848;DHT22;46681;47.696;9.140;2023-07-08T07:57:52;22.90;52.40
60848;DHT22;46681;47.696;9.140;2023-07-08T08:00:31;23.00;52.20
60848;DHT22;46681;47.696;9.140;2023-07-08T08:03:08;23.10;52.00
60848;DHT22;46681;47.696;9.140;2023-07-08T08:05:34;23.10;51.80
60848;DHT22;46681;47.696;9.140;2023-07-08T08:08:01;23.20;51.90
60848;DHT22;46681;47.696;9.140;2023-07-08T08:10:26;23.20;51.90
60848;DHT22;46681;47.696;9.140;2023-07-08T08:13:01;23.30;51.80
60848;DHT22;46681;47.696;9.140;2023-07-08T08:15:35;23.30;51.60
60848;DHT22;46681;47.696;9.140;2023-07-08T08:18:18;23.30;51.40
60848;DHT22;46681;47.696;9.140;2023-07-08T08:20:59;23.40;51.10
60848;DHT22;46681;47.696;9.140;2023-07-08T08:23:25;23.40;51.10
60848;DHT22;46681;47.696;9.140;2023-07-08T08:26:04;23.50;50.90
60848;DHT22;46681;47.696;9.140;2023-07-08T08:28:52;23.50;50.80
60848;DHT22;46681;47.696;9.140;2023-07-08T08:34:23;23.60;50.50
60848;DHT22;46681;47.696;9.140;2023-07-08T08:37:03;23.70;50.40
60848;DHT22;46681;47.696;9.140;2023-07-08T08:39:52;23.70;50.30
60848;DHT22;46681;47.696;9.140;2023-07-08T08:42:41;23.80;50.20
60848;DHT22;46681;47.696;9.140;2023-07-08T08:45:41;23.90;50.00
60848;DHT22;46681;47.696;9.140;2023-07-08T08:48:51;24.00;50.00
60848;DHT22;46681;47.696;9.140;2023-07-08T08:54:47;24.20;49.50
60848;DHT22;46681;47.696;9.140;2023-07-08T09:03:49;24.60;48.80
60848;DHT22;46681;47.696;9.140;2023-07-08T09:06:41;24.70;48.60
60848;DHT22;46681;47.696;9.140;2023-07-08T09:09:37;24.90;48.30
60848;DHT22;46681;47.696;9.140;2023-07-08T09:12:32;25.00;48.10
60848;DHT22;46681;47.696;9.140;2023-07-08T09:15:28;25.10;47.90
60848;DHT22;46681;47.696;9.140;2023-07-08T09:18:36;25.20;47.70
60848;DHT22;46681;47.696;9.140;2023-07-08T09:27:33;25.40;47.50
60848;DHT22;46681;47.696;9.140;2023-07-08T09:30:16;25.50;47.50
60848;DHT22;46681;47.696;9.140;2023-07-08T09:32:43;25.50;47.50
60848;DHT22;46681;47.696;9.140;2023-07-08T09:41:43;25.40;48.60
60848;DHT22;46681;47.696;9.140;2023-07-08T09:44:39;25.50;48.60
60848;DHT22;46681;47.696;9.140;2023-07-08T09:50:33;25.80;48.00
60848;DHT22;46681;47.696;9.140;2023-07-08T09:53:29;25.90;47.70
60848;DHT22;46681;47.696;9.140;2023-07-08T09:56:27;26.00;47.50
60848;DHT22;46681;47.696;9.140;2023-07-08T10:08:37;26.40;47.00
60848;DHT22;46681;47.696;9.140;2023-07-08T10:14:45;26.50;46.80
60848;DHT22;46681;47.696;9.140;2023-07-08T11:34:20;27.90;45.70
60848;DHT22;46681;47.696;9.140;2023-07-08T12:01:47;28.10;45.60
60848;DHT22;46681;47.696;9.140;2023-07-08T12:10:41;28.40;45.60
60848;DHT22;46681;47.696;9.140;2023-07-08T12:13:44;28.40;45.30
60848;DHT22;46681;47.696;9.140;2023-07-08T12:16:30;28.50;45.20
60848;DHT22;46681;47.696;9.140;2023-07-08T12:22:24;28.60;45.10
60848;DHT22;46681;47.696;9.140;2023-07-08T12:46:41;29.30;44.90
60848;DHT22;46681;47.696;9.140;2023-07-08T12:55:29;30.20;44.00
60848;DHT22;46681;47.696;9.140;2023-07-08T13:04:59;30.60;43.20
60848;DHT22;46681;47.696;9.140;2023-07-08T13:11:14;30.90;43.10
60848;DHT22;46681;47.696;9.140;2023-07-08T13:17:04;31.20;42.90
60848;DHT22;46681;47.696;9.140;2023-07-08T14:12:36;32.60;41.70
60848;DHT22;46681;47.696;9.140;2023-07-08T14:15:37;32.70;42.20
60848;DHT22;46681;47.696;9.140;2023-07-08T14:18:23;32.70;41.80
60848;DHT22;46681;47.696;9.140;2023-07-08T14:49:12;32.60;41.50
60848;DHT22;46681;47.696;9.140;2023-07-08T15:41:24;32.30;42.00
60848;DHT22;46681;47.696;9.140;2023-07-08T19:05:41;28.60;43.40
60848;DHT22;46681;47.696;9.140;2023-07-08T21:10:44;25.50;47.10
60848;DHT22;46681;47.696;9.140;2023-07-08T21:13:22;25.50;47.20
60848;DHT22;46681;47.696;9.140;2023-07-08T21:16:30;25.40;47.00
60848;DHT22;46681;47.696;9.140;2023-07-08T21:19:21;25.40;47.50
60848;DHT22;46681;47.696;9.140;2023-07-08T21:24:49;25.20;47.40
60848;DHT22;46681;47.696;9.140;2023-07-08T21:27:25;25.20;47.30
60848;DHT22;46681;47.696;9.140;2023-07-08T21:32:55;25.10;47.40
60848;DHT22;46681;47.696;9.140;2023-07-08T21:35:47;25.10;47.50
60848;DHT22;46681;47.696;9.140;2023-07-08T21:38:42;25.00;47.50
60848;DHT22;46681;47.696;9.140;2023-07-08T21:41:26;25.00;47.40
60848;DHT22;46681;47.696;9.140;2023-07-08T21:44:14;24.90;47.40
60848;DHT22;46681;47.696;9.140;2023-07-08T21:46:56;24.90;47.80
60848;DHT22;46681;47.696;9.140;2023-07-08T21:49:34;24.80;47.50
60848;DHT22;46681;47.696;9.140;2023-07-08T21:52:17;24.70;47.60
60848;DHT22;46681;47.696;9.140;2023-07-08T21:54:43;24.70;47.60
60848;DHT22;46681;47.696;9.140;2023-07-08T21:57:15;24.70;47.90
60848;DHT22;46681;47.696;9.140;2023-07-08T21:59:54;24.60;47.70
60848;DHT22;46681;47.696;9.140;2023-07-08T22:02:19;24.60;47.80
60848;DHT22;46681;47.696;9.140;2023-07-08T22:04:52;24.50;47.80
60848;DHT22;46681;47.696;9.140;2023-07-08T22:07:28;24.50;47.80
60848;DHT22;46681;47.696;9.140;2023-07-08T22:09:58;24.50;48.10
60848;DHT22;46681;47.696;9.140;2023-07-08T22:12:30;24.40;48.30
60848;DHT22;46681;47.696;9.140;2023-07-08T22:14:58;24.40;48.50
60848;DHT22;46681;47.696;9.140;2023-07-08T22:17:35;24.40;48.30
60848;DHT22;46681;47.696;9.140;2023-07-08T22:20:09;24.30;48.30
60848;DHT22;46681;47.696;9.140;2023-07-08T22:22:46;24.30;48.00
60848;DHT22;46681;47.696;9.140;2023-07-08T22:25:21;24.20;48.40
60848;DHT22;46681;47.696;9.140;2023-07-08T22:30:19;24.20;48.30
60848;DHT22;46681;47.696;9.140;2023-07-08T22:32:45;24.10;48.20
60848;DHT22;46681;47.696;9.140;2023-07-08T22:35:24;24.00;48.40
60848;DHT22;46681;47.696;9.140;2023-07-08T22:37:53;24.00;49.00
60848;DHT22;46681;47.696;9.140;2023-07-08T22:40:18;23.90;48.50
60848;DHT22;46681;47.696;9.140;2023-07-08T22:42:44;23.90;48.50
60848;DHT22;46681;47.696;9.140;2023-07-08T22:45:15;23.90;48.70
60848;DHT22;46681;47.696;9.140;2023-07-08T22:47:47;23.90;48.60
60848;DHT22;46681;47.696;9.140;2023-07-08T22:50:22;23.80;48.80
60848;DHT22;46681;47.696;9.140;2023-07-08T22:52:53;23.80;48.80
60848;DHT22;46681;47.696;9.140;2023-07-08T22:55:32;23.70;48.90
60848;DHT22;46681;47.696;9.140;2023-07-08T22:58:14;23.70;48.80
60848;DHT22;46681;47.696;9.140;2023-07-08T23:00:43;23.70;48.80
60848;DHT22;46681;47.696;9.140;2023-07-08T23:03:09;23.60;48.80
60848;DHT22;46681;47.696;9.140;2023-07-08T23:05:39;23.60;48.90
60848;DHT22;46681;47.696;9.140;2023-07-08T23:08:30;23.50;48.90
60848;DHT22;46681;47.696;9.140;2023-07-08T23:10:58;23.50;49.10
60848;DHT22;46681;47.696;9.140;2023-07-08T23:18:49;23.50;49.20
60848;DHT22;46681;47.696;9.140;2023-07-08T23:21:20;23.40;49.10
60848;DHT22;46681;47.696;9.140;2023-07-08T23:23:49;23.30;49.00
60848;DHT22;46681;47.696;9.140;2023-07-08T23:26:21;23.30;49.20
60848;DHT22;46681;47.696;9.140;2023-07-08T23:28:53;23.30;49.20
60848;DHT22;46681;47.696;9.140;2023-07-08T23:33:45;23.30;49.40
60848;DHT22;46681;47.696;9.140;2023-07-08T23:38:49;23.20;49.50
60848;DHT22;46681;47.696;9.140;2023-07-08T23:41:16;23.10;49.60
60848;DHT22;46681;47.696;9.140;2023-07-08T23:43:42;23.10;49.60
60848;DHT22;46681;47.696;9.140;2023-07-08T23:46:08;23.10;49.70
60848;DHT22;46681;47.696;9.140;2023-07-08T23:48:35;23.00;49.60
60848;DHT22;46681;47.696;9.140;2023-07-08T23:51:04;23.00;49.80
60848;DHT22;46681;47.696;9.140;2023-07-08T23:53:31;23.00;49.90
60848;DHT22;46681;47.696;9.140;2023-07-08T23:55:57;23.00;49.80
60848;DHT22;46681;47.696;9.140;2023-07-08T23:58:27;23.00;50.00
